sensor_id;sensor_type;location;lat;lon;timestamp;pressure;altitude;pressure_sealevel;temperature;humidity
77939;BME280;67136;47.546;21.630;2023-02-15T00:00:06;101899.44;;;0.74;90.76
77939;BME280;67136;47.546;21.630;2023-02-15T00:03:26;101893.41;;;0.77;90.78
77939;BME280;67136;47.546;21.630;2023-02-15T00:07:15;101892.66;;;0.70;90.94
77939;BME280;67136;47.546;21.630;2023-02-15T00:10:40;101900.41;;;0.69;90.86
77939;BME280;67136;47.546;21.630;2023-02-15T00:14:24;101895.25;;;0.69;90.92
77939;BME280;67136;47.546;21.630;2023-02-15T00:17:33;101895.25;;;0.69;90.93
77939;BME280;67136;47.546;21.630;2023-02-15T00:20:58;101897.06;;;0.64;90.99
77939;BME280;67136;47.546;21.630;2023-02-15T00:24:39;101892.72;;;0.64;90.98
77939;BME280;67136;47.546;21.630;2023-02-15T00:27:54;101888.56;;;0.59;91.09
77939;BME280;67136;47.546;21.630;2023-02-15T00:31:12;101891.97;;;0.58;91.21
77939;BME280;67136;47.546;21.630;2023-02-15T00:34:20;101886.78;;;0.61;91.03
77939;BME280;67136;47.546;21.630;2023-02-15T00:37:41;101889.41;;;0.58;91.10
77939;BME280;67136;47.546;21.630;2023-02-15T00:41:16;101890.22;;;0.61;91.10
77939;BME280;67136;47.546;21.630;2023-02-15T00:44:48;101881.75;;;0.55;91.17
77939;BME280;67136;47.546;21.630;2023-02-15T00:48:10;101879.28;;;0.49;91.47
77939;BME280;67136;47.546;21.630;2023-02-15T00:55:16;101882.78;;;0.45;91.48
77939;BME280;67136;47.546;21.630;2023-02-15T00:58:46;101879.38;;;0.41;91.60
77939;BME280;67136;47.546;21.630;2023-02-15T01:02:21;101879.34;;;0.44;91.63
77939;BME280;67136;47.546;21.630;2023-02-15T01:05:50;101870.97;;;0.32;91.85
77939;BME280;67136;47.546;21.630;2023-02-15T01:09:08;101869.25;;;0.31;91.95
77939;BME280;67136;47.546;21.630;2023-02-15T01:12:33;101869.44;;;0.20;92.13
77939;BME280;67136;47.546;21.630;2023-02-15T01:15:45;101861.72;;;0.19;92.30
77939;BME280;67136;47.546;21.630;2023-02-15T01:19:22;101856.75;;;0.10;92.52
77939;BME280;67136;47.546;21.630;2023-02-15T01:22:54;101849.97;;;0.04;92.71
77939;BME280;67136;47.546;21.630;2023-02-15T01:26:20;101844.88;;;-0.01;92.94
77939;BME280;67136;47.546;21.630;2023-02-15T01:29:32;101850.78;;;0.06;93.01
77939;BME280;67136;47.546;21.630;2023-02-15T01:33:14;101838.03;;;-0.02;93.14
77939;BME280;67136;47.546;21.630;2023-02-15T01:40:28;101836.50;;;-0.15;93.37
77939;BME280;67136;47.546;21.630;2023-02-15T01:44:01;101840.03;;;-0.19;93.53
77939;BME280;67136;47.546;21.630;2023-02-15T01:51:32;101832.41;;;-0.26;93.97
77939;BME280;67136;47.546;21.630;2023-02-15T01:54:57;101821.31;;;-0.30;94.07
77939;BME280;67136;47.546;21.630;2023-02-15T01:58:15;101824.75;;;-0.31;94.19
77939;BME280;67136;47.546;21.630;2023-02-15T02:01:42;101830.00;;;-0.40;94.33
77939;BME280;67136;47.546;21.630;2023-02-15T02:05:00;101831.62;;;-0.33;94.42
77939;BME280;67136;47.546;21.630;2023-02-15T02:08:44;101826.50;;;-0.33;94.51
77939;BME280;67136;47.546;21.630;2023-02-15T02:12:13;101819.69;;;-0.37;94.49
77939;BME280;67136;47.546;21.630;2023-02-15T02:15:43;101806.03;;;-0.39;94.55
77939;BME280;67136;47.546;21.630;2023-02-15T02:27:24;101811.06;;;-0.31;94.46
77939;BME280;67136;47.546;21.630;2023-02-15T02:34:59;101798.22;;;-0.31;94.36
77939;BME280;67136;47.546;21.630;2023-02-15T02:45:50;101810.88;;;-0.18;94.09
77939;BME280;67136;47.546;21.630;2023-02-15T02:49:16;101818.66;;;-0.24;93.99
77939;BME280;67136;47.546;21.630;2023-02-15T02:52:56;101822.81;;;-0.17;93.98
77939;BME280;67136;47.546;21.630;2023-02-15T02:56:35;101820.37;;;-0.24;94.04
77939;BME280;67136;47.546;21.630;2023-02-15T03:00:39;101821.16;;;-0.19;93.92
77939;BME280;67136;47.546;21.630;2023-02-15T03:04:42;101817.06;;;-0.31;93.95
77939;BME280;67136;47.546;21.630;2023-02-15T03:08:04;101820.56;;;-0.38;94.19
77939;BME280;67136;47.546;21.630;2023-02-15T03:11:37;101830.00;;;-0.40;94.23
77939;BME280;67136;47.546;21.630;2023-02-15T03:19:31;101833.47;;;-0.44;94.51
77939;BME280;67136;47.546;21.630;2023-02-15T03:27:02;101830.06;;;-0.43;94.71
77939;BME280;67136;47.546;21.630;2023-02-15T03:30:52;101837.03;;;-0.51;94.83
77939;BME280;67136;47.546;21.630;2023-02-15T03:34:52;101848.13;;;-0.50;94.87
77939;BME280;67136;47.546;21.630;2023-02-15T03:38:48;101850.75;;;-0.55;95.02
77939;BME280;67136;47.546;21.630;2023-02-15T03:42:42;101848.16;;;-0.52;95.08
77939;BME280;67136;47.546;21.630;2023-02-15T03:50:11;101846.53;;;-0.60;95.13
77939;BME280;67136;47.546;21.630;2023-02-15T03:54:31;101863.72;;;-0.65;95.26
77939;BME280;67136;47.546;21.630;2023-02-15T03:58:20;101866.34;;;-0.70;95.44
77939;BME280;67136;47.546;21.630;2023-02-15T04:02:28;101859.53;;;-0.71;95.56
77939;BME280;67136;47.546;21.630;2023-02-15T04:06:33;101857.84;;;-0.75;95.70
77939;BME280;67136;47.546;21.630;2023-02-15T04:10:03;101856.97;;;-0.75;95.82
77939;BME280;67136;47.546;21.630;2023-02-15T04:14:19;101861.31;;;-0.79;95.91
77939;BME280;67136;47.546;21.630;2023-02-15T04:22:24;101859.63;;;-0.80;96.21
77939;BME280;67136;47.546;21.630;2023-02-15T04:26:35;101862.16;;;-0.78;96.27
77939;BME280;67136;47.546;21.630;2023-02-15T04:30:15;101864.94;;;-0.98;96.46
77939;BME280;67136;47.546;21.630;2023-02-15T04:33:46;101866.75;;;-1.06;96.60
77939;BME280;67136;47.546;21.630;2023-02-15T04:37:29;101871.88;;;-1.09;96.74
77939;BME280;67136;47.546;21.630;2023-02-15T04:52:25;101872.94;;;-1.28;97.20
77939;BME280;67136;47.546;21.630;2023-02-15T04:55:51;101866.16;;;-1.35;97.25
77939;BME280;67136;47.546;21.630;2023-02-15T04:59:13;101873.03;;;-1.40;97.28
77939;BME280;67136;47.546;21.630;2023-02-15T05:02:54;101872.25;;;-1.48;97.37
77939;BME280;67136;47.546;21.630;2023-02-15T05:06:29;101868.84;;;-1.50;97.52
77939;BME280;67136;47.546;21.630;2023-02-15T05:13:38;101875.03;;;-1.74;97.80
77939;BME280;67136;47.546;21.630;2023-02-15T05:17:00;101875.91;;;-1.79;97.88
77939;BME280;67136;47.546;21.630;2023-02-15T05:20:31;101877.63;;;-1.78;97.95
77939;BME280;67136;47.546;21.630;2023-02-15T05:23:46;101878.53;;;-1.88;98.03
77939;BME280;67136;47.546;21.630;2023-02-15T05:27:10;101876.03;;;-1.97;98.10
77939;BME280;67136;47.546;21.630;2023-02-15T05:30:43;101867.56;;;-2.07;98.18
77939;BME280;67136;47.546;21.630;2023-02-15T05:33:58;101869.28;;;-2.10;98.21
77939;BME280;67136;47.546;21.630;2023-02-15T05:37:05;101876.09;;;-2.09;98.29
77939;BME280;67136;47.546;21.630;2023-02-15T05:40:12;101882.94;;;-2.14;98.39
77939;BME280;67136;47.546;21.630;2023-02-15T05:43:24;101884.69;;;-2.13;98.47
77939;BME280;67136;47.546;21.630;2023-02-15T05:46:29;101894.91;;;-2.16;98.56
77939;BME280;67136;47.546;21.630;2023-02-15T05:49:35;101896.62;;;-2.14;98.63
77939;BME280;67136;47.546;21.630;2023-02-15T05:52:44;101901.75;;;-2.15;98.71
77939;BME280;67136;47.546;21.630;2023-02-15T05:56:03;101902.59;;;-2.12;98.74
77939;BME280;67136;47.546;21.630;2023-02-15T05:59:07;101903.41;;;-2.05;98.77
77939;BME280;67136;47.546;21.630;2023-02-15T06:02:18;101905.06;;;-2.01;98.86
77939;BME280;67136;47.546;21.630;2023-02-15T06:05:25;101899.91;;;-1.92;98.89
77939;BME280;67136;47.546;21.630;2023-02-15T06:08:32;101903.28;;;-1.86;98.89
77939;BME280;67136;47.546;21.630;2023-02-15T06:12:04;101905.81;;;-1.77;98.88
77939;BME280;67136;47.546;21.630;2023-02-15T06:15:09;101908.25;;;-1.60;98.89
77939;BME280;67136;47.546;21.630;2023-02-15T06:18:16;101919.09;;;-1.27;98.91
77939;BME280;67136;47.546;21.630;2023-02-15T06:21:24;101925.72;;;-1.01;98.87
77939;BME280;67136;47.546;21.630;2023-02-15T06:24:32;101924.66;;;-0.79;98.68
77939;BME280;67136;47.546;21.630;2023-02-15T06:27:46;101926.00;;;-0.47;97.96
77939;BME280;67136;47.546;21.630;2023-02-15T06:30:53;101925.81;;;-0.29;97.30
77939;BME280;67136;47.546;21.630;2023-02-15T06:34:03;101932.50;;;-0.16;96.76
77939;BME280;67136;47.546;21.630;2023-02-15T06:37:11;101932.97;;;0.12;95.84
77939;BME280;67136;47.546;21.630;2023-02-15T06:40:17;101933.50;;;0.34;94.97
77939;BME280;67136;47.546;21.630;2023-02-15T06:43:23;101927.75;;;0.74;94.02
77939;BME280;67136;47.546;21.630;2023-02-15T06:46:28;101926.69;;;1.33;92.41
77939;BME280;67136;47.546;21.630;2023-02-15T06:49:38;101927.28;;;1.91;89.68
77939;BME280;67136;47.546;21.630;2023-02-15T06:52:40;101927.25;;;2.68;87.34
77939;BME280;67136;47.546;21.630;2023-02-15T06:55:51;101924.09;;;3.24;84.09
77939;BME280;67136;47.546;21.630;2023-02-15T06:58:55;101916.53;;;4.08;80.66
77939;BME280;67136;47.546;21.630;2023-02-15T07:01:58;101921.03;;;4.57;78.13
77939;BME280;67136;47.546;21.630;2023-02-15T07:05:03;101916.00;;;4.78;76.77
77939;BME280;67136;47.546;21.630;2023-02-15T07:08:10;101926.53;;;5.25;74.01
77939;BME280;67136;47.546;21.630;2023-02-15T07:11:13;101911.16;;;5.43;71.55
77939;BME280;67136;47.546;21.630;2023-02-15T07:14:34;101916.09;;;5.74;70.24
77939;BME280;67136;47.546;21.630;2023-02-15T07:17:42;101919.13;;;6.09;67.80
77939;BME280;67136;47.546;21.630;2023-02-15T07:20:46;101926.13;;;6.72;65.84
77939;BME280;67136;47.546;21.630;2023-02-15T07:23:51;101918.09;;;7.38;64.29
77939;BME280;67136;47.546;21.630;2023-02-15T07:26:56;101921.44;;;7.81;62.36
77939;BME280;67136;47.546;21.630;2023-02-15T07:30:00;101920.25;;;8.60;59.83
77939;BME280;67136;47.546;21.630;2023-02-15T07:33:11;101914.84;;;8.82;57.55
77939;BME280;67136;47.546;21.630;2023-02-15T07:36:30;101921.00;;;9.32;55.29
77939;BME280;67136;47.546;21.630;2023-02-15T07:39:45;101911.66;;;9.61;55.78
77939;BME280;67136;47.546;21.630;2023-02-15T07:42:51;101913.91;;;9.99;53.31
77939;BME280;67136;47.546;21.630;2023-02-15T07:46:07;101910.03;;;9.91;52.64
77939;BME280;67136;47.546;21.630;2023-02-15T07:49:10;101909.91;;;10.70;50.26
77939;BME280;67136;47.546;21.630;2023-02-15T07:52:15;101913.19;;;11.33;48.60
77939;BME280;67136;47.546;21.630;2023-02-15T07:55:19;101912.69;;;11.70;47.79
77939;BME280;67136;47.546;21.630;2023-02-15T07:58:24;101908.16;;;12.00;46.86
77939;BME280;67136;47.546;21.630;2023-02-15T08:01:47;101921.06;;;12.03;46.01
77939;BME280;67136;47.546;21.630;2023-02-15T08:04:54;101912.97;;;12.34;44.96
77939;BME280;67136;47.546;21.630;2023-02-15T08:07:58;101907.44;;;12.78;42.92
77939;BME280;67136;47.546;21.630;2023-02-15T08:14:35;101910.22;;;12.09;43.01
77939;BME280;67136;47.546;21.630;2023-02-15T08:17:41;101911.09;;;12.76;42.81
77939;BME280;67136;47.546;21.630;2023-02-15T08:20:50;101906.62;;;13.17;41.51
77939;BME280;67136;47.546;21.630;2023-02-15T08:24:00;101908.69;;;12.73;41.38
77939;BME280;67136;47.546;21.630;2023-02-15T08:27:07;101909.44;;;12.48;42.39
77939;BME280;67136;47.546;21.630;2023-02-15T08:30:11;101906.47;;;13.06;41.60
77939;BME280;67136;47.546;21.630;2023-02-15T08:33:20;101907.53;;;13.03;40.92
77939;BME280;67136;47.546;21.630;2023-02-15T08:36:26;101908.16;;;12.80;41.51
77939;BME280;67136;47.546;21.630;2023-02-15T08:39:31;101907.00;;;11.48;43.91
77939;BME280;67136;47.546;21.630;2023-02-15T08:42:47;101905.66;;;12.79;41.53
77939;BME280;67136;47.546;21.630;2023-02-15T08:45:52;101906.06;;;11.35;43.27
77939;BME280;67136;47.546;21.630;2023-02-15T08:48:58;101903.09;;;10.68;44.86
77939;BME280;67136;47.546;21.630;2023-02-15T08:52:00;101905.22;;;10.91;45.76
77939;BME280;67136;47.546;21.630;2023-02-15T08:55:05;101910.16;;;13.03;41.14
77939;BME280;67136;47.546;21.630;2023-02-15T08:58:07;101906.47;;;12.67;40.43
77939;BME280;67136;47.546;21.630;2023-02-15T09:01:17;101900.12;;;11.89;41.90
77939;BME280;67136;47.546;21.630;2023-02-15T09:04:24;101894.13;;;11.73;42.55
77939;BME280;67136;47.546;21.630;2023-02-15T09:07:30;101902.16;;;12.12;42.06
77939;BME280;67136;47.546;21.630;2023-02-15T09:10:38;101902.34;;;11.53;43.16
77939;BME280;67136;47.546;21.630;2023-02-15T09:13:45;101906.62;;;12.24;41.45
77939;BME280;67136;47.546;21.630;2023-02-15T09:16:51;101899.72;;;12.09;42.32
77939;BME280;67136;47.546;21.630;2023-02-15T09:20:07;101897.03;;;12.23;42.21
77939;BME280;67136;47.546;21.630;2023-02-15T09:23:15;101906.00;;;10.93;44.73
77939;BME280;67136;47.546;21.630;2023-02-15T09:26:30;101903.63;;;11.46;43.29
77939;BME280;67136;47.546;21.630;2023-02-15T09:29:40;101901.69;;;11.78;43.08
77939;BME280;67136;47.546;21.630;2023-02-15T09:32:47;101897.41;;;11.05;43.92
77939;BME280;67136;47.546;21.630;2023-02-15T09:35:49;101900.84;;;11.35;42.98
77939;BME280;67136;47.546;21.630;2023-02-15T09:39:01;101896.03;;;9.92;45.80
77939;BME280;67136;47.546;21.630;2023-02-15T09:59:45;101880.06;;;16.12;33.38
77939;BME280;67136;47.546;21.630;2023-02-15T10:06:41;101876.81;;;17.66;31.27
77939;BME280;67136;47.546;21.630;2023-02-15T10:27:13;101856.50;;;18.34;28.12
77939;BME280;67136;47.546;21.630;2023-02-15T10:30:27;101840.28;;;17.60;28.74
77939;BME280;67136;47.546;21.630;2023-02-15T10:33:41;101845.66;;;17.79;28.56
77939;BME280;67136;47.546;21.630;2023-02-15T10:36:52;101837.94;;;19.74;27.12
77939;BME280;67136;47.546;21.630;2023-02-15T10:46:53;101836.56;;;19.43;26.37
77939;BME280;67136;47.546;21.630;2023-02-15T10:53:49;101822.69;;;20.04;25.87
77939;BME280;67136;47.546;21.630;2023-02-15T10:57:11;101835.50;;;20.53;25.32
77939;BME280;67136;47.546;21.630;2023-02-15T11:00:30;101829.91;;;20.81;24.55
77939;BME280;67136;47.546;21.630;2023-02-15T11:13:38;101814.47;;;21.36;24.19
77939;BME280;67136;47.546;21.630;2023-02-15T11:16:51;101813.00;;;21.75;23.38
77939;BME280;67136;47.546;21.630;2023-02-15T11:20:19;101814.62;;;21.27;23.77
77939;BME280;67136;47.546;21.630;2023-02-15T11:23:26;101806.94;;;22.15;22.46
77939;BME280;67136;47.546;21.630;2023-02-15T11:26:40;101812.81;;;21.69;23.04
77939;BME280;67136;47.546;21.630;2023-02-15T11:33:12;101801.22;;;21.44;23.72
77939;BME280;67136;47.546;21.630;2023-02-15T11:36:23;101804.81;;;22.51;22.97
77939;BME280;67136;47.546;21.630;2023-02-15T11:39:33;101802.81;;;19.63;25.82
77939;BME280;67136;47.546;21.630;2023-02-15T11:42:42;101803.44;;;19.74;26.20
77939;BME280;67136;47.546;21.630;2023-02-15T11:45:55;101794.19;;;20.84;25.14
77939;BME280;67136;47.546;21.630;2023-02-15T11:48:58;101800.09;;;22.04;24.00
77939;BME280;67136;47.546;21.630;2023-02-15T11:52:06;101793.72;;;20.63;24.83
77939;BME280;67136;47.546;21.630;2023-02-15T11:55:20;101792.44;;;21.93;23.87
77939;BME280;67136;47.546;21.630;2023-02-15T11:58:40;101791.50;;;22.43;23.56
77939;BME280;67136;47.546;21.630;2023-02-15T12:01:51;101786.06;;;21.86;24.21
77939;BME280;67136;47.546;21.630;2023-02-15T12:05:03;101779.22;;;20.40;25.59
77939;BME280;67136;47.546;21.630;2023-02-15T12:08:21;101767.84;;;21.66;24.50
77939;BME280;67136;47.546;21.630;2023-02-15T12:11:36;101780.06;;;21.84;24.41
77939;BME280;67136;47.546;21.630;2023-02-15T12:14:50;101776.81;;;22.39;23.59
77939;BME280;67136;47.546;21.630;2023-02-15T12:17:57;101767.72;;;23.20;22.60
77939;BME280;67136;47.546;21.630;2023-02-15T12:21:24;101766.09;;;20.81;25.11
77939;BME280;67136;47.546;21.630;2023-02-15T12:24:45;101755.31;;;22.16;24.10
77939;BME280;67136;47.546;21.630;2023-02-15T12:27:50;101751.94;;;22.94;23.12
77939;BME280;67136;47.546;21.630;2023-02-15T12:31:05;101749.63;;;22.03;23.88
77939;BME280;67136;47.546;21.630;2023-02-15T12:34:35;101756.81;;;22.51;23.51
77939;BME280;67136;47.546;21.630;2023-02-15T12:41:25;101749.81;;;22.09;24.05
77939;BME280;67136;47.546;21.630;2023-02-15T12:44:37;101741.91;;;21.76;24.67
77939;BME280;67136;47.546;21.630;2023-02-15T12:47:41;101738.37;;;21.18;25.47
77939;BME280;67136;47.546;21.630;2023-02-15T12:50:50;101736.91;;;21.15;25.12
77939;BME280;67136;47.546;21.630;2023-02-15T12:53:56;101732.06;;;21.19;25.29
77939;BME280;67136;47.546;21.630;2023-02-15T12:57:31;101726.84;;;20.15;26.37
77939;BME280;67136;47.546;21.630;2023-02-15T13:00:36;101727.28;;;20.96;25.64
77939;BME280;67136;47.546;21.630;2023-02-15T13:07:02;101739.16;;;20.76;25.50
77939;BME280;67136;47.546;21.630;2023-02-15T13:10:22;101729.25;;;19.19;27.42
77939;BME280;67136;47.546;21.630;2023-02-15T13:13:33;101722.06;;;19.11;28.02
77939;BME280;67136;47.546;21.630;2023-02-15T13:16:40;101724.22;;;18.14;29.79
77939;BME280;67136;47.546;21.630;2023-02-15T13:19:52;101718.19;;;17.93;29.73
77939;BME280;67136;47.546;21.630;2023-02-15T13:23:08;101723.91;;;18.36;29.26
77939;BME280;67136;47.546;21.630;2023-02-15T13:26:26;101710.03;;;16.97;31.28
77939;BME280;67136;47.546;21.630;2023-02-15T13:29:44;101705.34;;;15.98;33.05
77939;BME280;67136;47.546;21.630;2023-02-15T13:32:57;101700.56;;;15.60;33.90
77939;BME280;67136;47.546;21.630;2023-02-15T14:00:47;101704.44;;;14.22;37.26
77939;BME280;67136;47.546;21.630;2023-02-15T14:20:45;101689.94;;;13.82;39.04
77939;BME280;67136;47.546;21.630;2023-02-15T14:31:24;101688.75;;;13.03;40.45
77939;BME280;67136;47.546;21.630;2023-02-15T14:34:52;101689.44;;;12.92;41.45
77939;BME280;67136;47.546;21.630;2023-02-15T14:38:22;101682.44;;;12.42;42.31
77939;BME280;67136;47.546;21.630;2023-02-15T14:41:35;101679.25;;;12.12;43.17
77939;BME280;67136;47.546;21.630;2023-02-15T14:44:48;101689.66;;;12.26;42.94
77939;BME280;67136;47.546;21.630;2023-02-15T14:54:58;101684.69;;;11.97;43.57
77939;BME280;67136;47.546;21.630;2023-02-15T14:58:14;101680.22;;;11.58;44.40
77939;BME280;67136;47.546;21.630;2023-02-15T15:01:29;101683.06;;;11.41;44.96
77939;BME280;67136;47.546;21.630;2023-02-15T15:04:44;101690.84;;;10.88;46.44
77939;BME280;67136;47.546;21.630;2023-02-15T15:08:03;101691.78;;;10.73;47.06
77939;BME280;67136;47.546;21.630;2023-02-15T15:11:37;101694.75;;;10.53;47.84
77939;BME280;67136;47.546;21.630;2023-02-15T15:14:48;101689.72;;;9.90;49.60
77939;BME280;67136;47.546;21.630;2023-02-15T15:18:46;101700.88;;;9.63;50.52
77939;BME280;67136;47.546;21.630;2023-02-15T15:22:04;101688.78;;;9.15;51.85
77939;BME280;67136;47.546;21.630;2023-02-15T15:32:12;101700.88;;;7.83;56.42
77939;BME280;67136;47.546;21.630;2023-02-15T15:35:50;101696.28;;;7.52;58.30
77939;BME280;67136;47.546;21.630;2023-02-15T15:43:03;101690.25;;;6.96;60.70
77939;BME280;67136;47.546;21.630;2023-02-15T15:49:59;101697.44;;;6.52;62.09
77939;BME280;67136;47.546;21.630;2023-02-15T15:53:21;101681.84;;;6.32;62.95
77939;BME280;67136;47.546;21.630;2023-02-15T15:56:38;101686.97;;;6.13;64.32
77939;BME280;67136;47.546;21.630;2023-02-15T15:59:46;101690.28;;;5.97;64.82
77939;BME280;67136;47.546;21.630;2023-02-15T16:02:53;101686.44;;;5.85;65.41
77939;BME280;67136;47.546;21.630;2023-02-15T16:06:28;101685.28;;;5.71;66.09
77939;BME280;67136;47.546;21.630;2023-02-15T16:13:33;101689.78;;;5.23;67.36
77939;BME280;67136;47.546;21.630;2023-02-15T16:16:51;101685.66;;;4.95;68.05
77939;BME280;67136;47.546;21.630;2023-02-15T16:20:28;101686.09;;;4.83;69.37
77939;BME280;67136;47.546;21.630;2023-02-15T16:24:37;101689.38;;;4.64;70.12
77939;BME280;67136;47.546;21.630;2023-02-15T16:27:51;101686.28;;;4.54;70.98
77939;BME280;67136;47.546;21.630;2023-02-15T16:31:14;101689.53;;;4.36;71.77
77939;BME280;67136;47.546;21.630;2023-02-15T16:34:34;101687.66;;;4.15;72.45
77939;BME280;67136;47.546;21.630;2023-02-15T16:37:56;101697.75;;;3.98;73.09
77939;BME280;67136;47.546;21.630;2023-02-15T16:41:08;101696.44;;;3.85;74.09
77939;BME280;67136;47.546;21.630;2023-02-15T16:44:27;101689.88;;;3.75;74.29
77939;BME280;67136;47.546;21.630;2023-02-15T16:47:45;101697.09;;;3.65;75.19
77939;BME280;67136;47.546;21.630;2023-02-15T16:51:28;101695.13;;;3.46;75.51
77939;BME280;67136;47.546;21.630;2023-02-15T16:54:44;101686.12;;;3.30;76.10
77939;BME280;67136;47.546;21.630;2023-02-15T16:57:59;101695.06;;;3.20;76.43
77939;BME280;67136;47.546;21.630;2023-02-15T17:01:20;101698.09;;;3.05;76.96
77939;BME280;67136;47.546;21.630;2023-02-15T17:04:31;101686.47;;;2.90;77.74
77939;BME280;67136;47.546;21.630;2023-02-15T17:14:26;101691.22;;;2.75;79.20
77939;BME280;67136;47.546;21.630;2023-02-15T17:17:34;101692.31;;;2.66;79.47
77939;BME280;67136;47.546;21.630;2023-02-15T17:20:43;101695.00;;;2.63;80.01
77939;BME280;67136;47.546;21.630;2023-02-15T17:23:57;101692.56;;;2.59;80.29
77939;BME280;67136;47.546;21.630;2023-02-15T17:27:38;101688.59;;;2.45;80.51
77939;BME280;67136;47.546;21.630;2023-02-15T17:30:43;101683.50;;;2.42;81.09
77939;BME280;67136;47.546;21.630;2023-02-15T17:40:42;101690.19;;;2.17;81.66
77939;BME280;67136;47.546;21.630;2023-02-15T17:44:01;101688.06;;;2.01;81.95
77939;BME280;67136;47.546;21.630;2023-02-15T17:47:17;101684.91;;;1.88;82.68
77939;BME280;67136;47.546;21.630;2023-02-15T17:50:26;101685.97;;;1.81;82.96
77939;BME280;67136;47.546;21.630;2023-02-15T17:53:43;101687.09;;;1.70;83.38
77939;BME280;67136;47.546;21.630;2023-02-15T17:57:12;101687.28;;;1.62;83.78
77939;BME280;67136;47.546;21.630;2023-02-15T18:00:21;101689.28;;;1.51;84.17
77939;BME280;67136;47.546;21.630;2023-02-15T18:04:02;101684.19;;;1.48;84.52
77939;BME280;67136;47.546;21.630;2023-02-15T18:07:36;101691.31;;;1.37;84.71
77939;BME280;67136;47.546;21.630;2023-02-15T18:11:24;101688.06;;;1.29;85.28
77939;BME280;67136;47.546;21.630;2023-02-15T18:14:50;101686.47;;;1.23;85.31
77939;BME280;67136;47.546;21.630;2023-02-15T18:18:08;101684.13;;;1.13;85.57
77939;BME280;67136;47.546;21.630;2023-02-15T18:21:35;101679.97;;;1.06;86.10
77939;BME280;67136;47.546;21.630;2023-02-15T18:25:04;101681.09;;;0.94;86.48
77939;BME280;67136;47.546;21.630;2023-02-15T18:28:11;101684.69;;;0.87;86.56
77939;BME280;67136;47.546;21.630;2023-02-15T18:31:26;101686.56;;;0.79;86.87
77939;BME280;67136;47.546;21.630;2023-02-15T18:34:57;101684.97;;;0.74;87.21
77939;BME280;67136;47.546;21.630;2023-02-15T18:38:31;101692.72;;;0.71;87.50
77939;BME280;67136;47.546;21.630;2023-02-15T18:45:31;101689.94;;;0.81;88.26
77939;BME280;67136;47.546;21.630;2023-02-15T18:49:11;101690.13;;;0.74;87.67
77939;BME280;67136;47.546;21.630;2023-02-15T18:52:26;101691.28;;;0.58;87.61
77939;BME280;67136;47.546;21.630;2023-02-15T18:56:00;101685.41;;;0.51;87.79
77939;BME280;67136;47.546;21.630;2023-02-15T18:59:33;101676.28;;;0.37;88.12
77939;BME280;67136;47.546;21.630;2023-02-15T19:02:56;101681.41;;;0.37;88.54
77939;BME280;67136;47.546;21.630;2023-02-15T19:06:18;101684.00;;;0.34;89.14
77939;BME280;67136;47.546;21.630;2023-02-15T19:09:33;101686.72;;;0.28;88.98
77939;BME280;67136;47.546;21.630;2023-02-15T19:13:07;101685.91;;;0.24;88.86
77939;BME280;67136;47.546;21.630;2023-02-15T19:19:29;101684.22;;;0.23;89.11
77939;BME280;67136;47.546;21.630;2023-02-15T19:22:54;101687.78;;;0.16;89.15
77939;BME280;67136;47.546;21.630;2023-02-15T19:26:11;101689.47;;;0.17;89.71
77939;BME280;67136;47.546;21.630;2023-02-15T19:33:27;101682.59;;;0.19;89.89
77939;BME280;67136;47.546;21.630;2023-02-15T19:36:53;101678.50;;;0.08;89.73
77939;BME280;67136;47.546;21.630;2023-02-15T19:40:34;101682.72;;;0.12;90.39
77939;BME280;67136;47.546;21.630;2023-02-15T19:47:19;101680.44;;;-0.05;90.37
77939;BME280;67136;47.546;21.630;2023-02-15T19:50:49;101684.78;;;-0.07;90.57
77939;BME280;67136;47.546;21.630;2023-02-15T19:54:36;101678.91;;;-0.17;90.29
77939;BME280;67136;47.546;21.630;2023-02-15T19:58:37;101675.53;;;-0.19;90.94
77939;BME280;67136;47.546;21.630;2023-02-15T20:02:19;101678.19;;;-0.25;90.85
77939;BME280;67136;47.546;21.630;2023-02-15T20:05:40;101676.69;;;-0.36;90.81
77939;BME280;67136;47.546;21.630;2023-02-15T20:09:00;101674.25;;;-0.47;90.95
77939;BME280;67136;47.546;21.630;2023-02-15T20:12:29;101682.06;;;-0.51;91.35
77939;BME280;67136;47.546;21.630;2023-02-15T20:15:50;101675.03;;;-0.42;92.12
77939;BME280;67136;47.546;21.630;2023-02-15T20:19:11;101685.28;;;-0.40;92.04
77939;BME280;67136;47.546;21.630;2023-02-15T20:22:54;101680.94;;;-0.34;92.21
77939;BME280;67136;47.546;21.630;2023-02-15T20:26:16;101672.41;;;-0.36;92.01
77939;BME280;67136;47.546;21.630;2023-02-15T20:29:49;101675.03;;;-0.42;91.59
77939;BME280;67136;47.546;21.630;2023-02-15T20:33:02;101671.81;;;-0.53;91.39
77939;BME280;67136;47.546;21.630;2023-02-15T20:36:21;101669.28;;;-0.56;91.85
77939;BME280;67136;47.546;21.630;2023-02-15T20:40:25;101663.31;;;-0.58;92.04
77939;BME280;67136;47.546;21.630;2023-02-15T20:43:38;101664.16;;;-0.56;92.40
77939;BME280;67136;47.546;21.630;2023-02-15T20:47:21;101654.88;;;-0.66;92.01
77939;BME280;67136;47.546;21.630;2023-02-15T20:55:17;101658.59;;;-0.85;92.13
77939;BME280;67136;47.546;21.630;2023-02-15T20:58:57;101656.09;;;-0.92;92.37
77939;BME280;67136;47.546;21.630;2023-02-15T21:06:07;101648.62;;;-1.09;92.45
77939;BME280;67136;47.546;21.630;2023-02-15T21:09:27;101652.97;;;-1.11;92.68
77939;BME280;67136;47.546;21.630;2023-02-15T21:12:51;101658.09;;;-1.12;93.25
77939;BME280;67136;47.546;21.630;2023-02-15T21:16:05;101652.12;;;-1.13;93.28
77939;BME280;67136;47.546;21.630;2023-02-15T21:19:31;101644.50;;;-1.19;93.15
77939;BME280;67136;47.546;21.630;2023-02-15T21:22:54;101652.25;;;-1.23;93.10